createdAt,value
2018-02-05T00:02:26.561Z,101997.19
2018-02-05T00:04:54.108Z,102001.79
2018-02-05T00:07:21.673Z,101998.77
2018-02-05T00:09:49.223Z,101999.17
2018-02-05T00:12:16.740Z,102003.98
2018-02-05T00:14:44.308Z,102005.58
2018-02-05T00:17:11.858Z,102007.80
2018-02-05T00:19:39.384Z,102013.73
2018-02-05T00:22:06.947Z,102016.14
2018-02-05T00:24:34.478Z,102018.75
2018-02-05T00:27:02.039Z,102011.14
2018-02-05T00:29:29.579Z,102017.45
2018-02-05T00:31:57.172Z,102010.61
2018-02-05T00:34:24.730Z,102016.44
2018-02-05T00:36:52.247Z,102008.50
2018-02-05T00:39:19.825Z,102013.75
2018-02-05T00:41:47.336Z,102005.38
2018-02-05T00:44:14.896Z,102010.73
2018-02-05T00:46:42.859Z,102013.17
2018-02-05T00:49:10.372Z,102011.95
2018-02-05T00:51:37.998Z,102025.42
2018-02-05T00:54:05.862Z,102024.51
2018-02-05T00:56:33.457Z,102014.53
2018-02-05T00:59:00.981Z,102025.31
2018-02-05T01:01:28.515Z,102029.13
2018-02-05T01:03:56.057Z,102026.06
2018-02-05T01:06:23.595Z,102021.97
2018-02-05T01:08:51.544Z,102021.27
2018-02-05T01:11:19.070Z,102022.07
2018-02-05T01:13:46.670Z,102021.49
2018-02-05T01:16:14.225Z,102020.84
2018-02-05T01:18:41.815Z,102022.87
2018-02-05T01:21:09.387Z,102026.49
2018-02-05T01:23:36.919Z,102029.53
2018-02-05T01:26:04.921Z,102029.94
2018-02-05T01:28:32.445Z,102032.55
2018-02-05T01:30:59.993Z,102030.94
2018-02-05T01:33:28.294Z,102040.92
2018-02-05T01:35:55.951Z,102029.97
2018-02-05T01:38:23.471Z,102030.77
2018-02-05T01:40:51.099Z,102034.06
2018-02-05T01:43:18.624Z,102037.47
2018-02-05T01:45:46.257Z,102037.70
2018-02-05T01:48:13.776Z,102033.26
2018-02-05T01:50:41.322Z,102036.25
2018-02-05T01:53:08.887Z,102030.28
2018-02-05T01:55:36.425Z,102032.83
2018-02-05T01:58:03.996Z,102039.30
2018-02-05T02:00:31.536Z,102036.48
2018-02-05T02:02:59.472Z,102041.07
2018-02-05T02:05:26.999Z,102038.35
2018-02-05T02:07:54.514Z,102040.99
2018-02-05T02:10:22.394Z,102042.17
2018-02-05T02:12:49.932Z,102040.27
2018-02-05T02:15:17.467Z,102037.25
2018-02-05T02:17:45.031Z,102034.13
2018-02-05T02:20:12.618Z,102043.05
2018-02-05T02:22:40.180Z,102052.67
2018-02-05T02:25:07.716Z,102044.02
2018-02-05T02:27:35.252Z,102052.88
2018-02-05T02:30:03.192Z,102041.91
2018-02-05T02:32:30.732Z,102046.34
2018-02-05T02:34:58.264Z,102040.81
2018-02-05T02:37:25.843Z,102047.52
2018-02-05T02:39:53.463Z,102060.41
2018-02-05T02:42:20.988Z,102053.17
2018-02-05T02:44:48.571Z,102049.22
2018-02-05T02:47:16.183Z,102058.43
2018-02-05T02:49:43.717Z,102061.88
2018-02-05T02:52:11.240Z,102059.06
2018-02-05T02:54:38.815Z,102063.80
2018-02-05T02:57:06.351Z,102067.41
2018-02-05T02:59:33.915Z,102072.30
2018-02-05T03:02:01.479Z,102082.35
2018-02-05T03:04:29.010Z,102079.07
2018-02-05T03:06:56.606Z,102072.27
2018-02-05T03:09:24.158Z,102074.25
2018-02-05T03:11:51.683Z,102079.23
2018-02-05T03:14:19.290Z,102079.47
2018-02-05T03:16:46.835Z,102066.61
2018-02-05T03:19:14.372Z,102068.78
2018-02-05T03:21:42.005Z,102075.72
2018-02-05T03:24:09.537Z,102073.50
2018-02-05T03:26:37.466Z,102067.78
2018-02-05T03:29:05.015Z,102063.56
2018-02-05T03:31:32.531Z,102070.73
2018-02-05T03:34:00.070Z,102073.94
2018-02-05T03:36:27.645Z,102076.45
2018-02-05T03:38:55.186Z,102074.37
2018-02-05T03:41:22.743Z,102073.77
2018-02-05T03:43:50.292Z,102072.16
2018-02-05T03:46:17.828Z,102078.94
2018-02-05T03:48:45.432Z,102075.81
2018-02-05T03:51:12.956Z,102078.43
2018-02-05T03:53:40.491Z,102082.82
2018-02-05T03:56:08.055Z,102081.05
2018-02-05T03:58:35.656Z,102083.48
2018-02-05T04:01:03.225Z,102090.49
2018-02-05T04:03:30.786Z,102090.26
2018-02-05T04:05:58.629Z,102087.01
2018-02-05T04:08:26.144Z,102095.15
2018-02-05T04:10:53.677Z,102097.96
2018-02-05T04:13:21.224Z,102099.17
2018-02-05T04:15:48.798Z,102103.16
2018-02-05T04:18:16.338Z,102100.63
2018-02-05T04:20:43.941Z,102103.98
2018-02-05T04:23:11.536Z,102106.77
2018-02-05T04:25:39.111Z,102112.23
2018-02-05T04:28:06.672Z,102112.09
2018-02-05T04:30:34.235Z,102112.30
2018-02-05T04:33:01.785Z,102106.93
2018-02-05T04:35:29.360Z,102115.31
2018-02-05T04:37:56.937Z,102117.92
2018-02-05T04:40:24.488Z,102122.34
2018-02-05T04:42:52.220Z,102119.39
2018-02-05T04:45:19.754Z,102121.91
2018-02-05T04:47:47.281Z,102115.48
2018-02-05T04:50:15.157Z,102117.84
2018-02-05T04:52:42.664Z,102124.31
2018-02-05T04:55:10.192Z,102126.48
2018-02-05T04:57:38.120Z,102134.16
2018-02-05T05:00:05.673Z,102128.53
2018-02-05T05:02:33.199Z,102132.02
2018-02-05T05:05:00.748Z,102129.94
2018-02-05T05:07:28.321Z,102137.08
2018-02-05T05:09:56.068Z,102135.41
2018-02-05T05:12:23.591Z,102130.05
2018-02-05T05:14:51.140Z,102131.20
2018-02-05T05:17:18.717Z,102132.16
2018-02-05T05:19:46.260Z,102132.31
2018-02-05T05:22:14.224Z,102132.05
2018-02-05T05:24:41.773Z,102129.50
2018-02-05T05:27:09.290Z,102138.68
2018-02-05T05:29:36.925Z,102134.02
2018-02-05T05:32:04.491Z,102134.38
2018-02-05T05:34:32.365Z,102136.59
2018-02-05T05:36:59.903Z,102134.69
2018-02-05T05:39:27.511Z,102136.89
2018-02-05T05:41:55.083Z,102134.44
2018-02-05T05:44:22.674Z,102136.45
2018-02-05T05:46:50.265Z,102142.97
2018-02-05T05:49:20.514Z,102138.45
2018-02-05T05:51:48.965Z,102134.41
2018-02-05T05:54:16.933Z,102141.67
2018-02-05T05:56:44.455Z,102138.98
2018-02-05T05:59:11.992Z,102144.19
2018-02-05T06:01:39.536Z,102143.64
2018-02-05T06:04:07.051Z,102146.06
2018-02-05T06:06:34.586Z,102143.80
2018-02-05T06:09:02.104Z,102144.00
2018-02-05T06:11:29.680Z,102150.73
2018-02-05T06:13:57.333Z,102150.03
2018-02-05T06:16:24.877Z,102152.49
2018-02-05T06:18:52.433Z,102153.58
2018-02-05T06:21:19.950Z,102149.78
2018-02-05T06:23:47.840Z,102152.34
2018-02-05T06:26:15.382Z,102151.98
2018-02-05T06:28:42.937Z,102155.25
2018-02-05T06:31:10.488Z,102160.66
2018-02-05T06:33:38.009Z,102157.65
2018-02-05T06:36:05.579Z,102157.10
2018-02-05T06:38:33.139Z,102159.10
2018-02-05T06:41:00.673Z,102156.75
2018-02-05T06:43:28.816Z,102161.86
2018-02-05T06:45:56.400Z,102158.30
2018-02-05T06:48:23.923Z,102161.76
2018-02-05T06:51:03.417Z,102159.25
2018-02-05T06:56:36.739Z,102167.31
2018-02-05T06:59:04.295Z,102171.58
2018-02-05T07:01:31.916Z,102172.01
2018-02-05T07:03:59.451Z,102172.31
2018-02-05T07:06:26.999Z,102177.23
2018-02-05T07:08:54.541Z,102167.42
2018-02-05T07:11:22.215Z,102174.02
2018-02-05T07:13:49.816Z,102180.92
2018-02-05T07:16:17.347Z,102174.02
2018-02-05T07:18:45.254Z,102178.59
2018-02-05T07:21:12.775Z,102190.30
2018-02-05T07:23:40.335Z,102188.45
2018-02-05T07:26:07.909Z,102189.66
2018-02-05T07:28:35.541Z,102184.94
2018-02-05T07:31:03.125Z,102191.98
2018-02-05T07:33:30.659Z,102186.45
2018-02-05T07:35:58.268Z,102192.27
2018-02-05T07:38:25.820Z,102188.61
2018-02-05T07:40:53.378Z,102187.05
2018-02-05T07:43:21.053Z,102189.59
2018-02-05T07:45:48.743Z,102196.95
2018-02-05T07:48:16.279Z,102190.58
2018-02-05T07:50:43.884Z,102183.06
2018-02-05T07:53:11.428Z,102184.16
2018-02-05T07:55:38.985Z,102185.92
2018-02-05T07:58:06.547Z,102188.97
2018-02-05T08:00:34.092Z,102185.57
2018-02-05T08:03:01.664Z,102180.44
2018-02-05T08:05:29.203Z,102176.49
2018-02-05T08:07:56.778Z,102172.31
2018-02-05T08:10:24.362Z,102180.02
2018-02-05T08:12:51.896Z,102182.70
2018-02-05T08:15:19.456Z,102170.52
2018-02-05T08:17:46.983Z,102174.53
2018-02-05T08:20:14.545Z,102167.04
2018-02-05T08:22:42.073Z,102172.47
2018-02-05T08:25:09.652Z,102170.26
2018-02-05T08:27:37.273Z,102170.95
2018-02-05T08:30:04.872Z,102167.73
2018-02-05T08:32:32.444Z,102172.91
2018-02-05T08:34:59.984Z,102176.33
2018-02-05T08:37:27.553Z,102172.33
2018-02-05T08:39:55.081Z,102170.81
2018-02-05T08:42:22.648Z,102171.31
2018-02-05T08:44:50.202Z,102171.62
2018-02-05T08:47:17.845Z,102178.19
2018-02-05T08:49:45.376Z,102177.42
2018-02-05T08:52:12.934Z,102176.80
2018-02-05T08:54:40.480Z,102178.77
2018-02-05T08:57:07.999Z,102186.06
2018-02-05T08:59:35.547Z,102181.66
2018-02-05T09:02:03.097Z,102180.77
2018-02-05T09:04:30.673Z,102179.02
2018-02-05T09:06:58.204Z,102176.63
2018-02-05T09:09:25.759Z,102184.62
2018-02-05T09:11:53.284Z,102177.25
2018-02-05T09:14:20.858Z,102186.27
2018-02-05T09:16:48.441Z,102176.67
2018-02-05T09:19:16.007Z,102177.83
2018-02-05T09:21:43.539Z,102169.58
2018-02-05T09:24:11.109Z,102170.38
2018-02-05T09:26:38.690Z,102173.07
2018-02-05T09:29:06.265Z,102175.15
2018-02-05T09:31:33.812Z,102175.85
2018-02-05T09:34:01.365Z,102172.03
2018-02-05T09:36:29.013Z,102167.09
2018-02-05T09:38:56.584Z,102165.00
2018-02-05T09:41:24.156Z,102168.23
2018-02-05T09:43:51.731Z,102163.58
2018-02-05T09:46:19.312Z,102161.90
2018-02-05T09:48:46.861Z,102161.34
2018-02-05T09:51:14.419Z,102158.97
2018-02-05T09:53:41.979Z,102161.80
2018-02-05T09:56:09.579Z,102158.97
2018-02-05T09:58:37.124Z,102163.85
2018-02-05T10:01:04.724Z,102160.02
2018-02-05T10:03:32.276Z,102168.83
2018-02-05T10:05:59.809Z,102163.16
2018-02-05T10:08:27.653Z,102159.57
2018-02-05T10:10:55.172Z,102164.68
2018-02-05T10:13:22.707Z,102169.32
2018-02-05T10:15:50.611Z,102156.22
2018-02-05T10:18:18.134Z,102161.81
2018-02-05T10:20:45.735Z,102164.16
2018-02-05T10:23:13.290Z,102168.71
2018-02-05T10:25:40.981Z,102166.98
2018-02-05T10:28:08.535Z,102163.65
2018-02-05T10:30:36.108Z,102164.43
2018-02-05T10:33:03.660Z,102158.28
2018-02-05T10:35:31.274Z,102158.85
2018-02-05T10:37:58.820Z,102162.81
2018-02-05T10:40:26.355Z,102155.00
2018-02-05T10:42:54.306Z,102158.84
2018-02-05T10:45:21.863Z,102154.59
2018-02-05T10:47:49.402Z,102161.61
2018-02-05T10:50:16.974Z,102160.10
2018-02-05T10:52:45.321Z,102153.59
2018-02-05T10:55:12.912Z,102161.37
2018-02-05T10:57:40.454Z,102154.73
2018-02-05T11:00:07.995Z,102159.67
2018-02-05T11:02:35.561Z,102147.51
2018-02-05T11:05:03.157Z,102155.09
2018-02-05T11:07:30.732Z,102143.38
2018-02-05T11:09:58.285Z,102146.14
2018-02-05T11:12:25.840Z,102149.16
2018-02-05T11:14:53.451Z,102144.66
2018-02-05T11:17:21.035Z,102146.83
2018-02-05T11:19:49.522Z,102136.37
2018-02-05T11:22:17.092Z,102132.30
2018-02-05T11:24:44.641Z,102137.71
2018-02-05T11:27:12.253Z,102134.41
2018-02-05T11:29:40.149Z,102132.50
2018-02-05T11:32:07.683Z,102125.66
2018-02-05T11:34:35.207Z,102126.52
2018-02-05T11:37:02.782Z,102133.67
2018-02-05T11:39:30.369Z,102121.50
2018-02-05T11:41:57.985Z,102125.03
2018-02-05T11:44:25.520Z,102116.39
2018-02-05T11:46:53.073Z,102120.80
2018-02-05T11:49:20.681Z,102117.45
2018-02-05T11:51:48.273Z,102127.14
2018-02-05T11:54:15.857Z,102129.02
2018-02-05T11:56:43.451Z,102119.06
2018-02-05T11:59:11.015Z,102120.34
2018-02-05T12:01:38.579Z,102117.98
2018-02-05T12:04:06.166Z,102125.38
2018-02-05T12:06:33.707Z,102128.58
2018-02-05T12:09:01.510Z,102120.02
2018-02-05T12:11:29.167Z,102117.72
2018-02-05T12:13:56.871Z,102108.23
2018-02-05T12:16:24.528Z,102108.81
2018-02-05T12:18:52.172Z,102104.16
2018-02-05T12:21:19.735Z,102095.83
2018-02-05T12:23:47.352Z,102095.94
2018-02-05T12:26:14.899Z,102103.30
2018-02-05T12:28:42.581Z,102095.88
2018-02-05T12:31:10.144Z,102105.34
2018-02-05T12:33:37.854Z,102092.98
2018-02-05T12:36:05.434Z,102088.66
2018-02-05T12:38:32.995Z,102091.16
2018-02-05T12:41:00.661Z,102094.70
2018-02-05T12:43:28.200Z,102091.73
2018-02-05T12:45:56.145Z,102089.80
2018-02-05T12:48:23.744Z,102078.73
2018-02-05T12:50:51.287Z,102069.34
2018-02-05T12:53:18.905Z,102069.47
2018-02-05T12:55:46.465Z,102061.61
2018-02-05T12:58:14.061Z,102052.35
2018-02-05T13:00:47.104Z,102050.28
2018-02-05T13:03:19.161Z,102040.19
2018-02-05T13:05:52.216Z,102041.91
2018-02-05T13:08:19.761Z,102041.39
2018-02-05T13:10:47.281Z,102040.39
2018-02-05T13:13:15.243Z,102045.55
2018-02-05T13:15:42.768Z,102035.99
2018-02-05T13:18:10.284Z,102036.20
2018-02-05T13:20:38.131Z,102026.81
2018-02-05T13:23:05.675Z,102031.93
2018-02-05T13:25:33.436Z,102034.67
2018-02-05T13:28:01.022Z,102033.95
2018-02-05T13:30:28.665Z,102030.39
2018-02-05T13:32:56.215Z,102027.84
2018-02-05T13:35:23.784Z,102031.73
2018-02-05T13:37:51.340Z,102023.66
2018-02-05T13:40:18.917Z,102026.89
2018-02-05T13:42:46.501Z,102026.17
2018-02-05T13:45:14.088Z,102029.94
2018-02-05T13:47:41.641Z,102028.97
2018-02-05T13:50:09.202Z,102024.16
2018-02-05T13:52:36.826Z,102023.03
2018-02-05T13:55:04.536Z,102022.98
2018-02-05T13:57:32.219Z,102025.70
2018-02-05T13:59:59.792Z,102023.80
2018-02-05T14:02:27.368Z,102022.77
2018-02-05T14:04:54.886Z,102019.64
2018-02-05T14:07:22.461Z,102018.30
2018-02-05T14:09:49.999Z,102023.80
2018-02-05T14:12:17.587Z,102024.59
2018-02-05T14:14:45.122Z,102018.25
2018-02-05T14:17:12.660Z,102021.37
2018-02-05T14:19:41.091Z,102016.64
2018-02-05T14:22:08.693Z,102017.52
2018-02-05T14:24:36.253Z,102016.95
2018-02-05T14:27:03.844Z,102013.63
2018-02-05T14:29:31.416Z,102012.12
2018-02-05T14:31:58.956Z,102001.48
2018-02-05T14:34:26.561Z,101997.19
2018-02-05T14:36:54.081Z,101991.28
2018-02-05T14:39:21.641Z,101992.46
2018-02-05T14:41:49.510Z,101986.45
2018-02-05T14:44:17.066Z,101984.70
2018-02-05T14:46:44.709Z,101983.20
2018-02-05T14:49:12.269Z,101979.45
2018-02-05T14:51:39.841Z,101981.84
2018-02-05T14:54:07.428Z,101978.86
2018-02-05T14:56:34.995Z,101971.33
2018-02-05T14:59:02.548Z,101976.70
2018-02-05T15:01:30.080Z,101971.02
2018-02-05T15:03:57.685Z,101963.11
2018-02-05T15:06:25.210Z,101952.66
2018-02-05T15:08:52.887Z,101953.84
2018-02-05T15:11:20.629Z,101949.91
2018-02-05T15:13:48.227Z,101954.00
2018-02-05T15:16:15.940Z,101953.58
2018-02-05T15:18:43.763Z,101953.66
2018-02-05T15:21:11.462Z,101957.73
2018-02-05T15:23:39.031Z,101955.98
2018-02-05T15:26:06.595Z,101952.56
2018-02-05T15:28:34.310Z,101945.33
2018-02-05T15:31:01.871Z,101950.75
2018-02-05T15:33:29.817Z,101950.12
2018-02-05T15:35:57.397Z,101946.45
2018-02-05T15:38:24.986Z,101942.39
2018-02-05T15:40:52.577Z,101945.61
2018-02-05T15:43:20.119Z,101932.47
2018-02-05T15:45:47.660Z,101929.16
2018-02-05T15:48:15.248Z,101925.73
2018-02-05T15:50:42.795Z,101920.59
2018-02-05T15:53:10.366Z,101917.78
2018-02-05T15:55:37.919Z,101921.89
2018-02-05T15:58:05.506Z,101915.13
2018-02-05T16:00:33.444Z,101916.62
2018-02-05T16:03:01.020Z,101913.14
2018-02-05T16:05:28.568Z,101911.36
2018-02-05T16:07:56.535Z,101913.00
2018-02-05T16:10:24.079Z,101906.77
2018-02-05T16:12:51.592Z,101902.66
2018-02-05T16:15:19.133Z,101908.68
2018-02-05T16:17:46.699Z,101902.05
2018-02-05T16:20:14.235Z,101898.02
2018-02-05T16:22:41.805Z,101897.68
2018-02-05T16:25:09.382Z,101896.15
2018-02-05T16:27:37.410Z,101890.80
2018-02-05T16:30:04.928Z,101896.16
2018-02-05T16:32:32.468Z,101888.19
2018-02-05T16:35:00.029Z,101896.12
2018-02-05T16:37:27.599Z,101887.09
2018-02-05T16:39:55.185Z,101895.27
2018-02-05T16:42:22.801Z,101896.91
2018-02-05T16:44:50.351Z,101892.45
2018-02-05T16:47:17.864Z,101888.34
2018-02-05T16:49:45.467Z,101895.05
2018-02-05T16:52:13.041Z,101893.11
2018-02-05T16:54:40.585Z,101894.41
2018-02-05T16:57:08.195Z,101890.13
2018-02-05T16:59:36.147Z,101889.19
2018-02-05T17:02:03.784Z,101887.28
2018-02-05T17:04:31.316Z,101894.58
2018-02-05T17:06:58.864Z,101888.36
2018-02-05T17:09:26.473Z,101892.28
2018-02-05T17:11:54.028Z,101895.02
2018-02-05T17:14:21.666Z,101890.13
2018-02-05T17:16:49.243Z,101892.28
2018-02-05T17:19:16.784Z,101882.54
2018-02-05T17:21:44.361Z,101881.20
2018-02-05T17:24:12.228Z,101876.66
2018-02-05T17:26:39.744Z,101883.23
2018-02-05T17:29:07.279Z,101889.35
2018-02-05T17:31:34.822Z,101884.63
2018-02-05T17:34:02.380Z,101891.00
2018-02-05T17:36:30.373Z,101889.41
2018-02-05T17:38:58.000Z,101881.39
2018-02-05T17:41:25.657Z,101881.70
2018-02-05T17:43:53.339Z,101882.55
2018-02-05T17:46:20.891Z,101876.91
2018-02-05T17:48:48.456Z,101878.84
2018-02-05T17:51:16.005Z,101873.98
2018-02-05T17:53:43.559Z,101865.52
2018-02-05T17:56:11.500Z,101870.95
2018-02-05T17:58:39.028Z,101865.72
2018-02-05T18:01:06.580Z,101872.30
2018-02-05T18:03:34.147Z,101870.16
2018-02-05T18:06:01.699Z,101867.09
2018-02-05T18:08:29.244Z,101867.48
2018-02-05T18:10:56.796Z,101866.34
2018-02-05T18:13:24.379Z,101867.44
2018-02-05T18:15:51.927Z,101868.68
2018-02-05T18:18:19.526Z,101857.86
2018-02-05T18:20:47.079Z,101853.81
2018-02-05T18:23:14.615Z,101851.16
2018-02-05T18:25:42.195Z,101849.95
2018-02-05T18:28:09.870Z,101844.98
2018-02-05T18:30:37.454Z,101850.20
2018-02-05T18:33:05.008Z,101842.99
2018-02-05T18:35:32.598Z,101847.64
2018-02-05T18:38:00.279Z,101847.69
2018-02-05T18:40:27.846Z,101847.32
2018-02-05T18:42:55.419Z,101835.80
2018-02-05T18:45:23.003Z,101844.92
2018-02-05T18:47:50.556Z,101842.02
2018-02-05T18:50:18.132Z,101838.61
2018-02-05T18:52:45.713Z,101838.82
2018-02-05T18:55:13.247Z,101832.20
2018-02-05T18:57:40.820Z,101829.58
2018-02-05T19:00:20.305Z,101827.18
2018-02-05T19:02:48.176Z,101815.38
2018-02-05T19:05:15.708Z,101808.61
2018-02-05T19:07:43.251Z,101812.20
2018-02-05T19:10:11.152Z,101802.52
2018-02-05T19:12:38.809Z,101804.89
2018-02-05T19:15:06.468Z,101803.39
2018-02-05T19:17:34.468Z,101800.09
2018-02-05T19:20:02.013Z,101801.23
2018-02-05T19:22:29.536Z,101800.27
2018-02-05T19:24:57.145Z,101798.48
2018-02-05T19:27:24.668Z,101796.16
2018-02-05T19:29:52.244Z,101794.67
2018-02-05T19:32:19.825Z,101795.20
2018-02-05T19:34:47.461Z,101795.00
2018-02-05T19:37:15.009Z,101794.05
2018-02-05T19:39:43.037Z,101798.77
2018-02-05T19:42:10.612Z,101790.14
2018-02-05T19:44:38.171Z,101781.10
2018-02-05T19:47:05.744Z,101785.94
2018-02-05T19:49:33.315Z,101781.94
2018-02-05T19:52:00.900Z,101779.67
2018-02-05T19:54:28.478Z,101788.28
2018-02-05T19:56:56.024Z,101782.93
2018-02-05T19:59:23.618Z,101782.19
2018-02-05T20:01:51.281Z,101783.38
2018-02-05T20:04:19.261Z,101782.45
2018-02-05T20:06:46.779Z,101780.81
2018-02-05T20:09:14.315Z,101782.77
2018-02-05T20:11:41.984Z,101775.17
2018-02-05T20:14:09.818Z,101775.81
2018-02-05T20:16:37.417Z,101774.91
2018-02-05T20:19:05.140Z,101770.30
2018-02-05T20:21:32.733Z,101770.17
2018-02-05T20:24:00.464Z,101775.09
2018-02-05T20:26:28.345Z,101773.25
2018-02-05T20:28:56.020Z,101762.84
2018-02-05T20:31:23.595Z,101770.61
2018-02-05T20:33:51.165Z,101770.16
2018-02-05T20:36:18.837Z,101774.70
2018-02-05T20:38:46.406Z,101771.52
2018-02-05T20:41:14.084Z,101771.09
2018-02-05T20:43:41.631Z,101764.07
2018-02-05T20:46:09.305Z,101757.39
2018-02-05T20:48:36.870Z,101764.45
2018-02-05T20:51:04.461Z,101757.78
2018-02-05T20:53:32.017Z,101753.08
2018-02-05T20:55:59.550Z,101754.19
2018-02-05T20:58:27.202Z,101749.00
2018-02-05T21:00:54.772Z,101752.23
2018-02-05T21:03:22.362Z,101748.05
2018-02-05T21:05:49.929Z,101738.95
2018-02-05T21:08:17.517Z,101745.09
2018-02-05T21:10:45.034Z,101739.67
2018-02-05T21:13:12.600Z,101732.77
2018-02-05T21:15:40.167Z,101733.80
2018-02-05T21:18:07.759Z,101736.20
2018-02-05T21:20:35.315Z,101736.39
2018-02-05T21:23:02.937Z,101730.80
2018-02-05T21:25:30.485Z,101734.78
2018-02-05T21:27:58.081Z,101732.14
2018-02-05T21:30:25.657Z,101732.53
2018-02-05T21:32:53.514Z,101728.90
2018-02-05T21:35:21.069Z,101723.02
2018-02-05T21:37:48.644Z,101723.41
2018-02-05T21:40:16.279Z,101728.41
2018-02-05T21:42:43.824Z,101719.77
2018-02-05T21:45:11.444Z,101717.72
2018-02-05T21:47:38.974Z,101718.57
2018-02-05T21:50:06.548Z,101719.09
2018-02-05T21:52:34.104Z,101720.18
2018-02-05T21:55:01.653Z,101720.81
2018-02-05T21:57:29.599Z,101717.20
2018-02-05T21:59:57.143Z,101714.97
2018-02-05T22:02:24.686Z,101710.30
2018-02-05T22:04:52.313Z,101711.68
2018-02-05T22:07:19.860Z,101701.83
2018-02-05T22:09:47.388Z,101703.88
2018-02-05T22:12:14.984Z,101696.94
2018-02-05T22:14:42.554Z,101697.49
2018-02-05T22:17:10.081Z,101687.59
2018-02-05T22:19:37.651Z,101684.54
2018-02-05T22:22:05.209Z,101687.11
2018-02-05T22:24:32.737Z,101677.63
2018-02-05T22:27:00.336Z,101668.54
2018-02-05T22:29:27.859Z,101663.92
2018-02-05T22:31:55.407Z,101669.16
2018-02-05T22:34:22.961Z,101660.60
2018-02-05T22:36:50.538Z,101660.17
2018-02-05T22:39:18.087Z,101662.58
2018-02-05T22:41:46.293Z,101658.72
2018-02-05T22:44:13.858Z,101659.03
2018-02-05T22:46:41.432Z,101652.99
2018-02-05T22:49:08.967Z,101648.19
2018-02-05T22:51:36.517Z,101647.56
2018-02-05T22:54:04.133Z,101642.33
2018-02-05T22:56:31.691Z,101642.92
2018-02-05T22:58:59.216Z,101632.97
2018-02-05T23:01:26.789Z,101633.31
2018-02-05T23:03:54.677Z,101633.45
2018-02-05T23:06:22.226Z,101627.51
2018-02-05T23:08:49.776Z,101623.61
2018-02-05T23:11:17.346Z,101619.00
2018-02-05T23:13:44.911Z,101612.49
2018-02-05T23:16:12.478Z,101606.45
2018-02-05T23:18:40.050Z,101603.41
2018-02-05T23:21:07.665Z,101601.11
2018-02-05T23:23:35.235Z,101595.55
2018-02-05T23:26:02.822Z,101601.95
2018-02-05T23:28:30.368Z,101593.47
2018-02-05T23:30:57.955Z,101588.08
2018-02-05T23:33:25.529Z,101592.08
2018-02-05T23:35:53.070Z,101578.69
2018-02-05T23:38:20.640Z,101577.82
2018-02-05T23:40:48.174Z,101571.14
2018-02-05T23:43:15.747Z,101573.63
2018-02-05T23:45:43.296Z,101574.78
2018-02-05T23:48:10.853Z,101569.53
2018-02-05T23:50:38.413Z,101565.79
2018-02-05T23:53:05.959Z,101568.37
2018-02-05T23:55:33.506Z,101564.80
2018-02-05T23:58:01.051Z,101554.41
